createdAt,value
2019-01-31T00:04:31.593Z,3.40
2019-01-31T00:07:12.104Z,2.60
2019-01-31T00:09:52.192Z,2.70
2019-01-31T00:15:21.025Z,2.50
2019-01-31T00:18:01.791Z,2.57
2019-01-31T00:26:33.762Z,2.97
2019-01-31T00:32:02.156Z,2.60
2019-01-31T00:40:48.496Z,3.70
2019-01-31T00:43:29.486Z,2.90
2019-01-31T00:46:28.845Z,3.37
2019-01-31T00:52:27.528Z,2.93
2019-01-31T00:55:08.415Z,2.67
2019-01-31T01:04:02.534Z,2.50
2019-01-31T01:12:36.887Z,2.27
2019-01-31T01:18:26.073Z,2.60
2019-01-31T01:21:08.127Z,3.00
2019-01-31T01:23:49.278Z,3.13
2019-01-31T01:26:49.029Z,2.53
2019-01-31T01:35:21.651Z,2.97
2019-01-31T01:38:02.798Z,2.57
2019-01-31T01:43:51.497Z,3.00
2019-01-31T01:49:16.487Z,2.80
2019-01-31T01:54:36.497Z,3.50
2019-01-31T02:03:10.243Z,2.77
2019-01-31T02:05:51.360Z,3.13
2019-01-31T02:11:18.611Z,2.90
2019-01-31T02:17:07.614Z,2.70
2019-01-31T02:22:56.846Z,3.27
2019-01-31T02:25:38.330Z,2.70
2019-01-31T02:37:23.829Z,2.57
2019-01-31T02:40:17.105Z,2.57
2019-01-31T02:46:02.084Z,3.00
2019-01-31T03:03:48.813Z,2.60
2019-01-31T03:06:29.842Z,3.07
2019-01-31T03:12:15.197Z,3.10
2019-01-31T03:18:01.484Z,6.17
2019-01-31T03:20:42.655Z,3.07
2019-01-31T03:23:42.454Z,2.83
2019-01-31T03:26:23.591Z,2.80
2019-01-31T03:29:04.371Z,3.63
2019-01-31T03:31:45.326Z,3.00
2019-01-31T03:34:44.959Z,3.10
2019-01-31T03:37:25.933Z,3.00
2019-01-31T03:40:09.735Z,2.73
2019-01-31T03:42:50.876Z,3.00
2019-01-31T03:45:31.663Z,3.20
2019-01-31T03:48:14.823Z,4.10
2019-01-31T03:50:55.672Z,3.43
2019-01-31T03:53:36.779Z,3.73
2019-01-31T03:56:17.332Z,3.47
2019-01-31T04:02:17.557Z,3.60
2019-01-31T04:07:45.952Z,3.03
2019-01-31T04:13:39.797Z,3.13
2019-01-31T04:22:50.368Z,3.20
2019-01-31T04:25:30.803Z,4.53
2019-01-31T04:34:14.378Z,3.10
2019-01-31T04:43:00.460Z,3.57
2019-01-31T04:45:41.542Z,3.50
2019-01-31T04:48:22.545Z,3.80
2019-01-31T04:57:27.918Z,3.33
2019-01-31T05:06:20.096Z,3.10
2019-01-31T05:09:01.154Z,3.90
2019-01-31T05:12:01.054Z,5.43
2019-01-31T05:14:41.589Z,3.13
2019-01-31T05:17:22.778Z,5.90
2019-01-31T05:20:03.450Z,3.90
2019-01-31T05:22:44.674Z,3.30
2019-01-31T05:43:54.959Z,5.60
2019-01-31T05:58:27.548Z,5.60
2019-01-31T06:01:08.285Z,3.30
2019-01-31T06:03:49.273Z,3.50
2019-01-31T06:06:30.470Z,4.47
2019-01-31T06:09:11.271Z,5.93
2019-01-31T06:14:39.455Z,5.33
2019-01-31T06:20:09.309Z,3.67
2019-01-31T06:32:23.236Z,6.10
2019-01-31T06:53:30.960Z,6.37
2019-01-31T06:56:15.088Z,4.27
2019-01-31T07:04:45.730Z,4.80
2019-01-31T07:10:17.198Z,3.70
2019-01-31T07:13:17.394Z,4.13
2019-01-31T07:18:52.020Z,3.63
2019-01-31T07:25:00.661Z,3.60
2019-01-31T07:33:35.327Z,5.47
2019-01-31T07:36:17.486Z,4.17
2019-01-31T07:38:58.011Z,4.13
2019-01-31T07:44:26.459Z,3.40
2019-01-31T07:53:49.199Z,5.30
2019-01-31T07:59:17.411Z,4.80
2019-01-31T08:08:20.397Z,4.40
2019-01-31T08:11:04.366Z,3.47
2019-01-31T08:13:45.507Z,5.83
2019-01-31T08:19:39.715Z,5.50
2019-01-31T08:22:40.050Z,4.73
2019-01-31T08:25:21.135Z,4.47
2019-01-31T08:28:01.805Z,3.10
2019-01-31T08:34:01.056Z,3.97
2019-01-31T08:36:41.938Z,4.20
2019-01-31T08:46:02.277Z,3.50
2019-01-31T08:48:42.745Z,3.83
2019-01-31T08:51:27.164Z,2.70
2019-01-31T09:03:09.790Z,5.43
2019-01-31T09:09:10.115Z,6.77
2019-01-31T09:15:10.562Z,3.67
2019-01-31T09:17:51.743Z,3.30
2019-01-31T09:23:38.271Z,3.03
2019-01-31T09:26:19.226Z,3.47
2019-01-31T09:29:00.098Z,3.00
2019-01-31T09:34:38.995Z,3.17
2019-01-31T09:37:21.053Z,2.80
2019-01-31T09:40:02.183Z,3.07
2019-01-31T09:45:34.035Z,4.20
2019-01-31T09:48:34.217Z,3.67
2019-01-31T09:51:16.274Z,3.63
2019-01-31T10:00:01.179Z,4.13
2019-01-31T10:05:28.016Z,5.30
2019-01-31T10:08:27.866Z,5.20
2019-01-31T10:14:29.199Z,3.87
2019-01-31T10:17:09.900Z,5.40
2019-01-31T10:26:30.720Z,2.47
2019-01-31T10:29:11.838Z,2.17
2019-01-31T10:31:52.747Z,3.17
2019-01-31T10:34:33.668Z,3.90
2019-01-31T10:40:24.867Z,3.57
2019-01-31T10:46:13.304Z,3.33
2019-01-31T10:51:41.939Z,2.87
2019-01-31T10:54:22.728Z,3.07
2019-01-31T10:57:04.255Z,1.93
2019-01-31T11:02:32.111Z,2.17
2019-01-31T11:05:13.270Z,2.63
2019-01-31T11:07:53.870Z,2.67
2019-01-31T11:16:26.580Z,4.17
2019-01-31T11:19:12.513Z,4.50
2019-01-31T11:25:06.458Z,4.37
2019-01-31T11:28:06.749Z,3.40
2019-01-31T11:30:47.306Z,3.13
2019-01-31T11:36:15.518Z,2.30
2019-01-31T11:39:15.099Z,2.63
2019-01-31T11:41:55.352Z,1.77
2019-01-31T11:44:37.929Z,3.80
2019-01-31T11:47:18.927Z,4.23
2019-01-31T11:52:47.487Z,2.90
2019-01-31T11:55:28.571Z,3.97
2019-01-31T11:58:09.339Z,2.70
2019-01-31T12:03:54.975Z,3.60
2019-01-31T12:09:26.527Z,5.50
2019-01-31T12:14:58.717Z,2.63
2019-01-31T12:17:51.781Z,2.57
2019-01-31T12:20:32.340Z,3.57
2019-01-31T12:26:01.439Z,2.73
2019-01-31T12:31:32.008Z,2.90
2019-01-31T12:37:48.826Z,3.80
2019-01-31T12:46:22.406Z,2.47
2019-01-31T12:51:58.501Z,2.57
2019-01-31T12:57:37.055Z,2.77
2019-01-31T13:00:18.037Z,6.87
2019-01-31T13:02:58.680Z,2.90
2019-01-31T13:05:39.442Z,2.80
2019-01-31T13:08:20.347Z,2.50
2019-01-31T13:11:01.267Z,3.43
2019-01-31T13:16:47.498Z,1.40
2019-01-31T13:25:43.782Z,3.03
2019-01-31T13:31:29.126Z,2.17
2019-01-31T13:36:54.940Z,2.90
2019-01-31T13:43:14.292Z,1.90
2019-01-31T13:45:55.199Z,7.17
2019-01-31T13:48:54.775Z,10.63
2019-01-31T13:51:35.975Z,6.10
2019-01-31T13:54:16.620Z,2.57
2019-01-31T13:56:57.773Z,3.37
2019-01-31T13:59:38.720Z,2.20
2019-01-31T14:02:39.323Z,4.60
2019-01-31T14:08:27.720Z,4.00
2019-01-31T14:13:56.087Z,2.93
2019-01-31T14:16:46.755Z,2.60
2019-01-31T14:19:19.629Z,3.27
2019-01-31T14:22:19.559Z,2.07
2019-01-31T14:27:39.453Z,4.37
2019-01-31T14:33:09.475Z,6.73
2019-01-31T14:35:50.471Z,3.87
2019-01-31T14:38:31.272Z,3.33
2019-01-31T14:41:12.263Z,4.37
2019-01-31T14:43:52.194Z,4.87
2019-01-31T14:46:33.077Z,4.43
2019-01-31T14:49:13.828Z,5.97
2019-01-31T14:55:17.988Z,5.23
2019-01-31T14:57:59.161Z,2.80
2019-01-31T15:03:18.878Z,5.03
2019-01-31T15:12:23.677Z,3.30
2019-01-31T15:15:04.387Z,2.33
2019-01-31T15:18:05.050Z,4.40
2019-01-31T15:21:05.215Z,3.27
2019-01-31T15:26:54.499Z,5.10
2019-01-31T15:29:54.463Z,1.67
2019-01-31T15:32:35.482Z,4.47
2019-01-31T15:38:07.519Z,4.80
2019-01-31T15:43:32.803Z,3.00
2019-01-31T15:48:53.571Z,4.60
2019-01-31T15:51:34.514Z,1.93
2019-01-31T16:03:39.576Z,3.80
2019-01-31T16:09:05.083Z,5.00
2019-01-31T16:14:33.790Z,6.53
2019-01-31T16:17:13.675Z,4.93
2019-01-31T16:20:14.018Z,3.80
2019-01-31T16:29:10.684Z,5.43
2019-01-31T16:31:50.767Z,4.07
2019-01-31T16:37:17.351Z,5.80
2019-01-31T16:45:47.896Z,11.50
2019-01-31T16:51:15.106Z,4.67
2019-01-31T16:57:00.570Z,8.07
2019-01-31T17:02:39.444Z,7.43
2019-01-31T17:07:59.554Z,6.40
2019-01-31T17:10:40.617Z,10.40
2019-01-31T17:13:21.418Z,10.40
2019-01-31T17:16:01.614Z,7.97
2019-01-31T17:19:01.679Z,7.63
2019-01-31T17:24:48.334Z,8.13
2019-01-31T17:30:38.970Z,8.23
2019-01-31T17:36:28.658Z,7.43
2019-01-31T17:42:14.775Z,8.17
2019-01-31T17:44:55.603Z,9.10
2019-01-31T17:54:19.044Z,12.93
2019-01-31T18:03:48.667Z,14.37
2019-01-31T18:12:13.427Z,14.77
2019-01-31T18:14:54.451Z,10.83
2019-01-31T18:20:24.175Z,16.30
2019-01-31T18:26:18.514Z,20.40
2019-01-31T18:35:12.595Z,15.40
2019-01-31T18:40:41.684Z,13.63
2019-01-31T18:43:24.236Z,21.97
2019-01-31T18:48:52.858Z,20.57
2019-01-31T18:54:21.994Z,14.53
2019-01-31T18:57:02.088Z,14.50
2019-01-31T18:59:43.183Z,21.37
2019-01-31T19:05:08.118Z,16.30
2019-01-31T19:10:56.222Z,13.87
2019-01-31T19:22:28.866Z,14.33
2019-01-31T19:28:13.937Z,19.37
2019-01-31T19:37:24.483Z,20.43
2019-01-31T19:43:09.948Z,17.10
2019-01-31T19:45:50.897Z,21.13
2019-01-31T19:52:10.265Z,17.47
2019-01-31T20:00:56.488Z,20.53
2019-01-31T20:03:37.479Z,22.40
2019-01-31T20:09:26.231Z,14.37
2019-01-31T20:12:07.725Z,24.60
2019-01-31T20:18:02.278Z,20.37
2019-01-31T20:20:43.020Z,20.80
2019-01-31T20:26:41.546Z,22.77
2019-01-31T20:29:44.099Z,22.47
2019-01-31T20:32:25.012Z,23.97
2019-01-31T20:35:05.910Z,23.00
2019-01-31T20:40:34.376Z,22.73
2019-01-31T20:46:22.444Z,20.90
2019-01-31T20:52:06.002Z,24.17
2019-01-31T20:54:59.085Z,19.70
2019-01-31T21:00:46.572Z,19.37
2019-01-31T21:09:12.975Z,20.17
2019-01-31T21:11:53.978Z,22.87
2019-01-31T21:14:34.670Z,20.63
2019-01-31T21:17:34.859Z,24.47
2019-01-31T21:32:06.265Z,21.37
2019-01-31T21:40:56.704Z,26.50
2019-01-31T21:53:11.083Z,30.97
2019-01-31T22:05:28.720Z,30.40
2019-01-31T22:08:09.800Z,25.90
2019-01-31T22:10:50.748Z,26.13
2019-01-31T22:13:31.668Z,29.33
2019-01-31T22:16:31.638Z,30.53
2019-01-31T22:19:34.247Z,24.93
2019-01-31T22:28:32.668Z,30.57
2019-01-31T22:47:26.534Z,27.43
2019-01-31T22:52:55.408Z,34.33
2019-01-31T23:01:41.198Z,31.70
2019-01-31T23:07:26.332Z,36.80
2019-01-31T23:13:14.406Z,31.57
2019-01-31T23:18:46.270Z,29.57
2019-01-31T23:24:37.795Z,28.30
2019-01-31T23:30:23.626Z,34.50
2019-01-31T23:33:04.138Z,35.67
2019-01-31T23:44:24.169Z,34.83
2019-01-31T23:49:52.284Z,37.70
2019-01-31T23:52:36.748Z,35.83
2019-01-31T23:55:18.026Z,37.13
2019-01-31T23:57:59.185Z,39.37
